Time;durP1;ratioP1;P1;durP2;ratioP2;P2;SDS_P1;SDS_P2;PMS_P1;PMS_P2;Temp;Humidity;BMP_temperature;BMP_pressure;BME280_temperature;BME280_humidity;BME280_pressure;Samples;Min_cycle;Max_cycle;Signal;HPM_P1;HPM_P2
2022/07/25 00:02:12;;;;;;;64.72;23.95;;;10.70;99.90;;;;;;5111710;28;20023;-57
2022/07/25 00:04:40;;;;;;;54.05;23.30;;;10.70;99.90;;;;;;5112639;28;20130;-57
2022/07/25 00:07:08;;;;;;;49.92;22.60;;;10.60;99.90;;;;;;5111909;28;20020;-56
2022/07/25 00:09:35;;;;;;;47.88;21.33;;;10.70;99.90;;;;;;5110786;28;20027;-58
2022/07/25 00:12:02;;;;;;;49.72;19.88;;;10.70;99.90;;;;;;5110980;28;20038;-58
2022/07/25 00:14:29;;;;;;;48.65;20.88;;;10.70;99.90;;;;;;5110900;28;20044;-55
2022/07/25 00:16:57;;;;;;;44.78;19.88;;;10.90;99.90;;;;;;5125948;27;20138;-57
2022/07/25 00:19:24;;;;;;;44.38;20.50;;;10.90;99.90;;;;;;5130920;27;20055;-57
2022/07/25 00:21:51;;;;;;;41.33;18.48;;;11.10;99.90;;;;;;5130968;27;20016;-57
2022/07/25 00:24:18;;;;;;;27.67;12.27;;;11.20;99.90;;;;;;5114280;27;20379;-58
2022/07/25 00:26:46;;;;;;;21.67;10.65;;;11.30;99.90;;;;;;5114228;27;20453;-56
2022/07/25 00:29:13;;;;;;;36.97;16.65;;;11.40;99.90;;;;;;5132534;27;20034;-57
2022/07/25 00:31:40;;;;;;;33.80;15.95;;;11.60;99.90;;;;;;5114141;27;20118;-59
2022/07/25 00:34:07;;;;;;;25.75;13.93;;;11.80;99.90;;;;;;5127383;27;20035;-59
2022/07/25 00:36:34;;;;;;;28.00;12.93;;;12.00;99.90;;;;;;5112374;28;20027;-58
2022/07/25 00:39:02;;;;;;;17.02;9.60;;;12.20;99.90;;;;;;5112269;28;20032;-57
2022/07/25 00:41:29;;;;;;;13.98;8.75;;;12.30;99.90;;;;;;5112100;28;20141;-61
2022/07/25 00:43:56;;;;;;;18.63;10.25;;;12.30;99.20;;;;;;5111963;28;20022;-51
2022/07/25 00:46:24;;;;;;;15.88;10.20;;;12.40;99.60;;;;;;5120873;27;20050;-58
2022/07/25 00:48:51;;;;;;;16.85;11.23;;;12.50;99.20;;;;;;5119495;27;20121;-59
2022/07/25 00:51:18;;;;;;;14.50;10.52;;;12.60;99.50;;;;;;5119965;27;20027;-59
2022/07/25 00:53:46;;;;;;;16.73;11.75;;;12.80;99.10;;;;;;5120049;27;20016;-59
2022/07/25 00:56:13;;;;;;;15.73;9.82;;;12.90;99.00;;;;;;5119958;27;20019;-59
2022/07/25 00:58:41;;;;;;;15.73;9.88;;;13.00;98.50;;;;;;5103368;27;20035;-59
2022/07/25 01:01:08;;;;;;;12.35;9.90;;;13.10;97.90;;;;;;5119042;27;20106;-59
2022/07/25 01:03:35;;;;;;;12.43;8.90;;;13.20;97.50;;;;;;5102505;27;20031;-60
2022/07/25 01:06:03;;;;;;;11.25;8.05;;;13.20;96.80;;;;;;5119664;27;20026;-58
2022/07/25 01:08:31;;;;;;;13.15;8.80;;;13.30;96.80;;;;;;5121405;27;20019;-58
2022/07/25 01:10:59;;;;;;;12.70;7.60;;;13.40;96.90;;;;;;5103718;27;20030;-59
2022/07/25 01:13:26;;;;;;;8.32;6.45;;;13.50;96.80;;;;;;5101798;27;20094;-59
2022/07/25 01:15:53;;;;;;;10.85;6.68;;;13.50;94.90;;;;;;5120359;27;20086;-58
2022/07/25 01:18:20;;;;;;;9.98;5.72;;;13.60;94.70;;;;;;5121025;27;20084;-58
2022/07/25 01:20:48;;;;;;;7.03;5.25;;;13.70;95.70;;;;;;5100923;27;20026;-58
2022/07/25 01:23:15;;;;;;;5.80;4.00;;;13.80;96.20;;;;;;5119683;27;20027;-58
2022/07/25 01:25:42;;;;;;;6.47;4.45;;;14.00;94.70;;;;;;5131646;27;20462;-59
2022/07/25 01:28:09;;;;;;;5.30;3.70;;;14.10;95.00;;;;;;5110908;27;20042;-59
2022/07/25 01:30:37;;;;;;;7.30;5.15;;;14.20;94.60;;;;;;5102343;27;20020;-59
2022/07/25 01:33:04;;;;;;;7.75;4.78;;;14.30;94.10;;;;;;5116014;27;20012;-59
2022/07/25 01:35:31;;;;;;;5.28;3.80;;;14.40;95.60;;;;;;5117569;27;20019;-59
2022/07/25 01:37:58;;;;;;;8.15;5.50;;;14.60;95.00;;;;;;5118011;27;20027;-59
2022/07/25 01:40:26;;;;;;;6.30;4.22;;;14.70;95.20;;;;;;5117291;27;20426;-58
2022/07/25 01:42:53;;;;;;;6.60;4.45;;;14.80;95.30;;;;;;5118282;27;20100;-59
2022/07/25 01:45:20;;;;;;;6.68;5.00;;;15.00;94.10;;;;;;5123996;27;20027;-58
2022/07/25 01:47:47;;;;;;;10.48;6.20;;;15.10;94.20;;;;;;5131256;27;20050;-59
2022/07/25 01:50:14;;;;;;;13.85;6.93;;;15.10;92.30;;;;;;5131132;27;20026;-59
2022/07/25 01:52:43;;;;;;;10.35;5.53;;;15.20;92.10;;;;;;5130834;27;20387;-58
2022/07/25 01:55:10;;;;;;;14.38;7.82;;;15.20;93.30;;;;;;5131043;27;20068;-58
2022/07/25 01:57:38;;;;;;;11.70;7.85;;;15.50;94.60;;;;;;5130856;27;20031;-59
2022/07/25 02:00:08;;;;;;;20.95;8.18;;;15.60;92.90;;;;;;5131257;27;20375;-64
2022/07/25 02:02:40;;;;;;;17.65;8.05;;;15.70;92.20;;;;;;5120895;27;20552;-60
2022/07/25 02:05:08;;;;;;;13.25;5.88;;;15.80;92.60;;;;;;5119409;27;20015;-59
2022/07/25 02:07:39;;;;;;;10.48;5.72;;;15.90;92.60;;;;;;5102116;27;20015;-65
2022/07/25 02:10:07;;;;;;;16.05;8.18;;;16.10;93.40;;;;;;5119239;27;20024;-59
2022/07/25 02:12:34;;;;;;;11.73;7.20;;;16.20;90.60;;;;;;5118432;27;20488;-57
2022/07/25 02:15:02;;;;;;;12.15;6.05;;;16.10;91.90;;;;;;5121285;27;20038;-60
2022/07/25 02:17:29;;;;;;;18.17;5.82;;;16.20;92.10;;;;;;5095968;28;20044;-60
2022/07/25 02:19:56;;;;;;;12.18;4.78;;;16.30;92.30;;;;;;5096404;28;20669;-60
2022/07/25 02:22:23;;;;;;;10.20;4.88;;;16.40;91.40;;;;;;5093404;28;20012;-59
2022/07/25 02:24:51;;;;;;;6.88;3.80;;;16.40;91.20;;;;;;5091647;28;20069;-59
2022/07/25 02:27:18;;;;;;;7.95;3.17;;;16.30;88.70;;;;;;5089731;28;20020;-59
2022/07/25 02:29:45;;;;;;;3.42;1.98;;;16.40;91.00;;;;;;5089782;28;20031;-59
2022/07/25 02:32:12;;;;;;;4.03;2.20;;;16.50;88.50;;;;;;5089680;28;20024;-59
2022/07/25 02:34:39;;;;;;;3.83;1.77;;;16.60;90.10;;;;;;5089765;28;20055;-58
2022/07/25 02:37:07;;;;;;;4.50;1.73;;;16.70;90.40;;;;;;5089372;28;20020;-60
2022/07/25 02:39:34;;;;;;;5.45;2.30;;;16.80;90.20;;;;;;5090051;28;20077;-59
2022/07/25 02:42:01;;;;;;;5.88;2.10;;;16.90;87.80;;;;;;5089895;28;20020;-60
2022/07/25 02:44:28;;;;;;;5.00;2.53;;;17.00;86.50;;;;;;5089468;28;20051;-58
2022/07/25 02:46:56;;;;;;;6.05;2.20;;;17.00;87.80;;;;;;5088226;28;20469;-59
2022/07/25 02:49:23;;;;;;;11.98;3.35;;;17.10;86.60;;;;;;5092061;28;20032;-59
2022/07/25 02:51:50;;;;;;;4.57;2.13;;;17.10;86.80;;;;;;5099699;28;20446;-61
2022/07/25 02:54:18;;;;;;;3.67;1.77;;;17.10;83.90;;;;;;5095855;28;20032;-59
2022/07/25 02:56:46;;;;;;;5.95;1.48;;;17.00;83.20;;;;;;5098084;28;20012;-59
2022/07/25 02:59:13;;;;;;;5.07;1.60;;;17.10;83.70;;;;;;5099269;28;20027;-59
2022/07/25 03:01:43;;;;;;;7.15;1.63;;;17.10;83.40;;;;;;5096179;28;20016;-62
2022/07/25 03:04:10;;;;;;;5.22;1.60;;;17.30;83.10;;;;;;5097408;28;20028;-63
2022/07/25 03:06:38;;;;;;;3.05;1.40;;;17.20;80.20;;;;;;5096416;28;20016;-60
2022/07/25 03:09:05;;;;;;;6.18;1.55;;;17.40;82.40;;;;;;5089898;28;20016;-61
2022/07/25 03:11:33;;;;;;;5.35;1.60;;;17.50;80.10;;;;;;5089741;28;20093;-60
2022/07/25 03:14:00;;;;;;;4.47;1.65;;;17.50;80.00;;;;;;5089338;28;20024;-60
2022/07/25 03:16:28;;;;;;;1.73;0.65;;;17.60;80.60;;;;;;5100571;28;20050;-60
2022/07/25 03:18:55;;;;;;;2.33;0.90;;;17.60;78.90;;;;;;5109417;28;20070;-60
2022/07/25 03:21:22;;;;;;;5.35;1.20;;;17.60;77.30;;;;;;5109376;28;20032;-61
2022/07/25 03:23:49;;;;;;;1.55;0.82;;;17.70;79.40;;;;;;5091275;28;20032;-60
2022/07/25 03:26:17;;;;;;;5.00;1.20;;;17.70;78.50;;;;;;5094106;28;20073;-60
2022/07/25 03:28:44;;;;;;;4.85;1.33;;;17.70;79.30;;;;;;5117990;28;20379;-60
2022/07/25 03:31:11;;;;;;;8.30;1.45;;;17.80;79.10;;;;;;5126794;28;20035;-60
2022/07/25 03:33:38;;;;;;;4.75;1.83;;;17.80;80.00;;;;;;5120503;28;20027;-60
2022/07/25 03:36:06;;;;;;;5.75;1.45;;;17.80;79.40;;;;;;5130450;27;20050;-60
2022/07/25 03:38:33;;;;;;;5.03;2.25;;;17.80;79.50;;;;;;5115575;27;20035;-60
2022/07/25 03:41:00;;;;;;;2.47;0.80;;;17.80;79.10;;;;;;5132024;27;20456;-52
2022/07/25 03:43:28;;;;;;;2.97;1.55;;;17.90;78.00;;;;;;5132247;27;20038;-54
2022/07/25 03:45:55;;;;;;;1.75;0.60;;;18.00;77.90;;;;;;5128147;27;20383;-54
2022/07/25 03:48:23;;;;;;;1.75;0.80;;;18.00;78.00;;;;;;5108887;27;20027;-55
2022/07/25 03:50:50;;;;;;;1.38;0.80;;;18.00;76.70;;;;;;5129615;27;20348;-55
2022/07/25 03:53:17;;;;;;;1.65;0.70;;;18.00;76.90;;;;;;5110609;27;20038;-50
2022/07/25 03:55:44;;;;;;;3.30;1.10;;;18.10;78.70;;;;;;5129490;27;20427;-49
2022/07/25 03:58:11;;;;;;;2.65;1.02;;;18.20;75.60;;;;;;5128891;27;20042;-53
2022/07/25 04:00:39;;;;;;;0.30;0.30;;;18.20;77.20;;;;;;5129375;27;20063;-54
2022/07/25 04:03:06;;;;;;;0.70;0.40;;;18.20;76.20;;;;;;5129702;27;20034;-56
2022/07/25 04:05:33;;;;;;;1.73;0.40;;;18.20;75.90;;;;;;5129742;27;20274;-53
2022/07/25 04:08:01;;;;;;;1.73;0.65;;;18.10;76.40;;;;;;5110590;27;20371;-54
2022/07/25 04:10:28;;;;;;;3.67;0.68;;;18.20;76.90;;;;;;5128580;27;20077;-55
2022/07/25 04:12:55;;;;;;;2.42;0.60;;;18.20;76.50;;;;;;5128969;27;20399;-55
2022/07/25 04:15:22;;;;;;;4.50;0.60;;;18.20;76.10;;;;;;5128689;27;20027;-54
2022/07/25 04:17:50;;;;;;;0.98;0.47;;;18.20;75.90;;;;;;5128058;27;20171;-56
2022/07/25 04:20:17;;;;;;;2.45;0.50;;;18.20;75.10;;;;;;5109963;27;20027;-52
2022/07/25 04:22:45;;;;;;;2.53;0.70;;;18.30;72.90;;;;;;5126009;27;20020;-55
2022/07/25 04:25:12;;;;;;;2.53;0.60;;;18.30;73.90;;;;;;5128822;27;20019;-55
2022/07/25 04:27:39;;;;;;;1.90;0.80;;;18.20;72.70;;;;;;5128570;27;20023;-54
2022/07/25 04:30:07;;;;;;;2.97;0.75;;;18.20;74.30;;;;;;5129350;27;20076;-57
2022/07/25 04:32:34;;;;;;;3.03;0.90;;;18.20;72.70;;;;;;5110115;27;20082;-56
2022/07/25 04:35:02;;;;;;;0.65;0.30;;;18.20;73.50;;;;;;5109943;27;20046;-58
2022/07/25 04:37:29;;;;;;;2.38;0.65;;;18.20;71.90;;;;;;5124895;27;20042;-58
2022/07/25 04:39:56;;;;;;;1.00;0.47;;;18.10;71.30;;;;;;5116653;27;20098;-55
2022/07/25 04:42:24;;;;;;;2.85;0.50;;;17.90;71.40;;;;;;5099023;27;20039;-56
2022/07/25 04:44:51;;;;;;;1.85;0.40;;;17.70;71.80;;;;;;5099973;27;20064;-55
2022/07/25 04:47:18;;;;;;;2.17;0.40;;;17.60;71.80;;;;;;5116608;27;20027;-53
2022/07/25 04:49:45;;;;;;;0.43;0.20;;;17.50;73.00;;;;;;5096769;27;20030;-54
2022/07/25 04:52:13;;;;;;;0.30;0.28;;;17.50;74.00;;;;;;5112829;27;20028;-54
2022/07/25 04:54:40;;;;;;;1.80;0.75;;;17.60;73.60;;;;;;5107573;28;20028;-57
2022/07/25 04:57:07;;;;;;;3.63;0.65;;;17.60;71.90;;;;;;5107890;28;20024;-54
2022/07/25 04:59:35;;;;;;;0.90;0.50;;;17.50;72.60;;;;;;5090202;28;20028;-52
2022/07/25 05:02:02;;;;;;;0.30;0.20;;;17.30;73.80;;;;;;5109136;28;20023;-54
2022/07/25 05:04:29;;;;;;;1.55;0.40;;;17.10;73.90;;;;;;5108937;28;20019;-56
2022/07/25 05:06:57;;;;;;;0.90;0.32;;;17.00;74.30;;;;;;5108979;28;20027;-56
2022/07/25 05:09:24;;;;;;;0.90;0.40;;;17.00;75.20;;;;;;5108617;28;20475;-55
2022/07/25 05:11:51;;;;;;;2.40;0.47;;;17.00;75.00;;;;;;5090511;28;20035;-53
2022/07/25 05:14:18;;;;;;;0.52;0.20;;;17.00;75.00;;;;;;5108902;28;20064;-57
2022/07/25 05:16:45;;;;;;;2.38;0.50;;;17.00;75.40;;;;;;5109573;27;20058;-56
2022/07/25 05:19:13;;;;;;;3.33;0.47;;;17.10;74.30;;;;;;5111097;28;20066;-61
2022/07/25 05:21:40;;;;;;;2.05;0.40;;;17.20;74.60;;;;;;5109709;28;20429;-61
2022/07/25 05:24:08;;;;;;;3.20;0.90;;;17.30;74.80;;;;;;5111320;28;20034;-59
2022/07/25 05:26:35;;;;;;;1.02;0.30;;;17.40;75.20;;;;;;5127527;27;20019;-60
2022/07/25 05:29:02;;;;;;;0.85;0.45;;;17.50;74.80;;;;;;5112806;27;20088;-53
2022/07/25 05:31:30;;;;;;;2.72;0.95;;;17.50;74.60;;;;;;5131541;27;20062;-53
2022/07/25 05:33:57;;;;;;;4.53;1.17;;;17.60;73.60;;;;;;5131434;27;20040;-53
2022/07/25 05:36:24;;;;;;;1.70;0.70;;;17.70;72.80;;;;;;5131115;27;20023;-54
2022/07/25 05:38:52;;;;;;;1.50;0.60;;;17.80;72.00;;;;;;5112725;27;20126;-54
2022/07/25 05:41:20;;;;;;;0.90;0.40;;;17.90;73.20;;;;;;5112771;27;20031;-53
2022/07/25 05:43:47;;;;;;;1.27;0.30;;;18.00;72.10;;;;;;5131168;27;20486;-54
2022/07/25 05:46:15;;;;;;;0.95;0.50;;;18.10;71.20;;;;;;5131033;27;20023;-54
2022/07/25 05:48:43;;;;;;;2.03;0.50;;;18.10;72.50;;;;;;5131135;27;20020;-52
2022/07/25 05:51:10;;;;;;;2.08;0.40;;;18.10;72.60;;;;;;5130900;27;20062;-51
2022/07/25 05:53:37;;;;;;;3.65;1.33;;;18.10;72.60;;;;;;5131526;27;20046;-52
2022/07/25 05:56:05;;;;;;;1.25;0.43;;;18.10;73.40;;;;;;5105949;27;20035;-54
2022/07/25 05:58:32;;;;;;;1.52;0.50;;;18.00;73.60;;;;;;5118431;27;20118;-52
2022/07/25 06:01:00;;;;;;;4.38;0.73;;;17.80;73.50;;;;;;5101325;27;20089;-52
2022/07/25 06:03:27;;;;;;;8.05;1.15;;;17.80;75.00;;;;;;5118559;27;20020;-50
2022/07/25 06:05:55;;;;;;;3.22;0.90;;;17.60;74.80;;;;;;5118436;27;20022;-53
2022/07/25 06:08:23;;;;;;;6.43;0.70;;;17.50;76.50;;;;;;5099945;28;20042;-55
2022/07/25 06:10:50;;;;;;;1.77;0.70;;;17.30;77.10;;;;;;5119093;27;20019;-54
2022/07/25 06:13:17;;;;;;;0.80;0.30;;;17.10;76.90;;;;;;5120175;27;20615;-50
2022/07/25 06:15:44;;;;;;;2.70;0.60;;;16.90;77.50;;;;;;5118676;27;20050;-53
2022/07/25 06:18:15;;;;;;;2.03;1.05;;;16.70;78.10;;;;;;5118905;27;20055;-56
2022/07/25 06:20:42;;;;;;;1.65;0.50;;;16.50;79.10;;;;;;5118122;27;20029;-57
2022/07/25 06:23:10;;;;;;;3.22;0.80;;;16.30;81.20;;;;;;5128952;27;20027;-60
2022/07/25 06:25:37;;;;;;;1.42;0.40;;;16.10;81.80;;;;;;5112460;28;20027;-59
2022/07/25 06:28:05;;;;;;;6.85;0.82;;;15.90;83.00;;;;;;5130837;27;20102;-56
2022/07/25 06:30:32;;;;;;;1.02;0.50;;;15.90;83.20;;;;;;5111838;28;20134;-52
2022/07/25 06:32:59;;;;;;;1.33;0.50;;;15.70;84.00;;;;;;5130347;27;20111;-55
2022/07/25 06:35:27;;;;;;;1.33;0.40;;;15.60;84.50;;;;;;5128396;28;20015;-54
2022/07/25 06:37:54;;;;;;;4.03;1.25;;;15.50;84.90;;;;;;5128577;28;20035;-56
2022/07/25 06:40:21;;;;;;;1.20;0.50;;;15.50;85.00;;;;;;5128538;28;20016;-57
2022/07/25 06:42:48;;;;;;;2.05;0.70;;;15.50;85.60;;;;;;5110002;28;20411;-57
2022/07/25 06:45:16;;;;;;;0.63;0.40;;;15.50;85.60;;;;;;5109988;28;20475;-56
2022/07/25 06:47:44;;;;;;;2.45;0.60;;;15.50;85.60;;;;;;5128556;28;20063;-56
2022/07/25 06:50:14;;;;;;;3.10;0.50;;;15.50;85.70;;;;;;5111427;28;20089;-55
2022/07/25 06:52:41;;;;;;;6.53;0.82;;;15.40;86.20;;;;;;5130429;28;20027;-53
2022/07/25 06:55:10;;;;;;;3.28;1.00;;;15.40;86.90;;;;;;5112319;28;20471;-57
2022/07/25 06:57:38;;;;;;;2.92;1.35;;;15.30;86.40;;;;;;5112044;28;20043;-56
2022/07/25 07:00:08;;;;;;;2.33;1.30;;;15.20;87.40;;;;;;5112322;28;20114;-52
2022/07/25 07:02:56;;;;;;;5.97;1.75;;;15.10;87.50;;;;;;5130509;28;20031;-56
2022/07/25 07:05:24;;;;;;;2.53;0.90;;;14.90;88.30;;;;;;5123168;28;20026;-54
2022/07/25 07:07:52;;;;;;;1.70;0.93;;;14.80;89.30;;;;;;5118113;28;20055;-56
2022/07/25 07:10:21;;;;;;;1.80;0.60;;;14.60;89.80;;;;;;5100109;27;20023;-54
2022/07/25 07:12:49;;;;;;;1.02;0.45;;;14.40;90.40;;;;;;5103146;27;20037;-54
2022/07/25 07:15:17;;;;;;;1.67;0.77;;;14.20;91.20;;;;;;5133439;27;20486;-54
2022/07/25 07:17:44;;;;;;;0.80;0.60;;;14.10;91.00;;;;;;5115390;27;20502;-55
2022/07/25 07:20:12;;;;;;;1.13;0.55;;;14.00;91.20;;;;;;5134040;27;20019;-56
2022/07/25 07:22:47;;;;;;;1.65;0.80;;;13.80;91.50;;;;;;5134479;27;20022;-52
2022/07/25 07:25:16;;;;;;;1.85;1.00;;;13.70;91.90;;;;;;5105250;27;20023;-56
2022/07/25 07:27:44;;;;;;;1.80;0.70;;;13.60;92.00;;;;;;5121757;27;20121;-56
2022/07/25 07:30:13;;;;;;;5.60;1.08;;;13.50;92.00;;;;;;5121708;27;20030;-55
2022/07/25 07:32:41;;;;;;;3.63;0.70;;;13.30;92.10;;;;;;5121426;27;20016;-54
2022/07/25 07:35:10;;;;;;;3.05;0.80;;;13.30;92.40;;;;;;5103909;27;20421;-56
2022/07/25 07:37:38;;;;;;;1.63;0.77;;;13.10;92.60;;;;;;5105095;27;20368;-57
2022/07/25 07:40:06;;;;;;;3.72;0.90;;;12.90;92.90;;;;;;5121926;27;20015;-55
2022/07/25 07:42:44;;;;;;;1.95;0.90;;;12.80;93.10;;;;;;5120928;27;20023;-55
2022/07/25 07:45:21;;;;;;;5.30;0.98;;;12.70;93.00;;;;;;5104456;27;20436;-55
2022/07/25 07:47:50;;;;;;;4.10;1.23;;;12.50;93.40;;;;;;5122378;27;20023;-56
2022/07/25 07:50:21;;;;;;;3.53;1.70;;;12.40;93.50;;;;;;5120656;27;20062;-56
2022/07/25 07:52:49;;;;;;;5.55;1.75;;;12.30;93.90;;;;;;5121789;27;20012;-52
2022/07/25 07:58:02;;;;;;;2.65;1.20;;;12.10;94.40;;;;;;5121998;27;20033;-57
2022/07/25 08:00:30;;;;;;;5.93;2.30;;;12.00;95.00;;;;;;5104306;27;20026;-54
2022/07/25 08:02:59;;;;;;;8.48;2.17;;;12.00;94.90;;;;;;5102206;27;20065;-54
2022/07/25 08:05:32;;;;;;;2.97;1.80;;;12.10;96.30;;;;;;5121666;27;20039;-55
2022/07/25 08:08:00;;;;;;;5.20;2.23;;;12.20;95.70;;;;;;5118207;27;20058;-55
2022/07/25 08:10:31;;;;;;;4.15;2.10;;;12.20;95.80;;;;;;5121249;27;20274;-55
2022/07/25 08:12:59;;;;;;;6.07;2.10;;;12.20;95.80;;;;;;5104825;27;20027;-53
2022/07/25 08:15:27;;;;;;;3.70;1.75;;;12.30;96.40;;;;;;5121404;27;20454;-54
2022/07/25 08:17:54;;;;;;;3.35;1.42;;;12.30;95.80;;;;;;5099676;27;20905;-54
2022/07/25 08:20:22;;;;;;;4.43;1.52;;;12.20;95.80;;;;;;5109998;27;20031;-54
2022/07/25 08:22:50;;;;;;;5.03;1.70;;;12.10;96.50;;;;;;5121153;27;20449;-57
2022/07/25 08:25:20;;;;;;;4.72;1.63;;;12.10;96.50;;;;;;5114068;27;20467;-56
2022/07/25 08:27:48;;;;;;;7.25;1.92;;;12.10;97.00;;;;;;5091311;28;20110;-55
2022/07/25 08:30:17;;;;;;;5.07;2.47;;;12.00;97.10;;;;;;5124907;27;20083;-51
2022/07/25 08:32:54;;;;;;;8.70;2.42;;;12.10;98.40;;;;;;5104006;27;20399;-54
2022/07/25 08:35:24;;;;;;;3.60;1.70;;;12.30;98.40;;;;;;5103118;28;20384;-52
2022/07/25 08:37:52;;;;;;;5.20;2.17;;;12.30;97.50;;;;;;5109389;28;20400;-54
2022/07/25 08:40:21;;;;;;;4.07;2.25;;;12.30;97.70;;;;;;5111910;27;20023;-57
2022/07/25 08:42:49;;;;;;;9.82;2.35;;;12.20;98.20;;;;;;5093296;28;20024;-53
2022/07/25 08:45:19;;;;;;;5.60;2.10;;;12.20;98.40;;;;;;5103735;27;20039;-55
2022/07/25 08:47:48;;;;;;;8.93;2.80;;;12.20;99.10;;;;;;5091366;28;20059;-52
2022/07/25 08:50:20;;;;;;;8.40;2.53;;;12.20;98.60;;;;;;5115258;27;20028;-51
2022/07/25 08:52:49;;;;;;;7.30;3.60;;;12.10;98.90;;;;;;5125813;27;20019;-53
2022/07/25 08:55:21;;;;;;;6.93;3.20;;;12.20;99.40;;;;;;5107522;28;20020;-52
2022/07/25 08:57:51;;;;;;;6.43;2.60;;;12.10;99.40;;;;;;5109311;27;20125;-55
2022/07/25 09:00:25;;;;;;;7.75;2.90;;;12.10;99.40;;;;;;5122876;27;20023;-56
2022/07/25 09:03:00;;;;;;;9.10;2.92;;;12.10;99.60;;;;;;5108336;27;20112;-52
2022/07/25 09:05:30;;;;;;;7.70;3.30;;;12.10;99.60;;;;;;5095148;27;20038;-55
2022/07/25 09:08:06;;;;;;;10.27;3.22;;;12.10;99.90;;;;;;5112205;27;20032;-57
2022/07/25 09:10:34;;;;;;;9.18;3.20;;;12.10;99.90;;;;;;5118158;27;20031;-54
2022/07/25 09:13:06;;;;;;;5.70;3.33;;;12.10;99.70;;;;;;5111309;27;20597;-56
2022/07/25 09:15:34;;;;;;;6.75;4.05;;;12.00;99.90;;;;;;5120053;27;20039;-55
2022/07/25 09:18:06;;;;;;;6.75;2.90;;;12.00;99.90;;;;;;5125607;27;20414;-55
2022/07/25 09:20:48;;;;;;;12.32;3.38;;;11.90;99.90;;;;;;5117802;27;20062;-52
2022/07/25 09:23:36;;;;;;;8.13;3.55;;;11.90;99.90;;;;;;5104838;27;20083;-49
2022/07/25 09:26:11;;;;;;;16.73;4.68;;;11.90;99.90;;;;;;5109912;27;20061;-56
2022/07/25 09:28:42;;;;;;;12.48;3.83;;;11.80;99.90;;;;;;5093929;27;20046;-52
2022/07/25 09:31:10;;;;;;;8.27;4.45;;;11.90;99.90;;;;;;5110829;27;20578;-55
2022/07/25 09:33:55;;;;;;;12.48;4.00;;;11.80;99.90;;;;;;5110233;27;20149;-53
2022/07/25 09:36:23;;;;;;;13.30;4.20;;;11.80;99.90;;;;;;5119851;27;20809;-57
2022/07/25 09:39:03;;;;;;;11.05;4.15;;;11.80;99.90;;;;;;5128976;27;20075;-55
2022/07/25 09:41:41;;;;;;;17.67;4.97;;;11.80;99.90;;;;;;5089644;28;20024;-52
2022/07/25 09:44:21;;;;;;;10.95;4.13;;;11.80;99.90;;;;;;5108689;28;20027;-55
2022/07/25 09:46:49;;;;;;;14.43;5.05;;;11.90;99.90;;;;;;5108260;28;20032;-56
2022/07/25 09:49:18;;;;;;;11.90;4.60;;;12.00;99.90;;;;;;5106567;27;20024;-54
2022/07/25 09:51:46;;;;;;;13.25;5.10;;;12.10;99.90;;;;;;5126321;27;20019;-53
2022/07/25 09:54:14;;;;;;;11.50;4.40;;;12.20;99.90;;;;;;5123471;27;20020;-52
2022/07/25 09:56:42;;;;;;;11.65;3.78;;;12.10;99.90;;;;;;5108241;28;20043;-54
2022/07/25 09:59:09;;;;;;;14.60;4.10;;;12.10;99.90;;;;;;5108419;28;20539;-53
2022/07/25 10:01:47;;;;;;;12.90;4.13;;;12.10;99.90;;;;;;5107968;28;20035;-53
2022/07/25 10:04:17;;;;;;;12.93;4.07;;;12.10;99.90;;;;;;5093400;28;20100;-53
2022/07/25 10:07:17;;;;;;;13.73;4.80;;;12.10;99.90;;;;;;5099511;27;20050;-53
2022/07/25 10:09:49;;;;;;;13.95;4.40;;;12.10;99.90;;;;;;5109294;27;20031;-53
2022/07/25 10:12:22;;;;;;;9.05;4.57;;;11.90;99.90;;;;;;5107901;28;20031;-56
2022/07/25 10:15:08;;;;;;;11.35;5.82;;;11.80;99.90;;;;;;5107725;28;20112;-54
2022/07/25 10:17:36;;;;;;;16.20;4.68;;;11.70;99.90;;;;;;5108361;27;20101;-53
2022/07/25 10:20:06;;;;;;;19.80;7.70;;;11.60;99.90;;;;;;5107683;28;20423;-53
2022/07/25 10:22:43;;;;;;;21.63;11.00;;;11.60;99.90;;;;;;5107736;28;20121;-55
2022/07/25 10:25:18;;;;;;;21.25;8.55;;;11.60;99.90;;;;;;5089709;28;20031;-54
2022/07/25 10:27:56;;;;;;;12.40;6.30;;;11.50;99.90;;;;;;5122279;27;20032;-51
2022/07/25 10:30:36;;;;;;;15.55;6.75;;;11.40;99.90;;;;;;5107130;28;20082;-56
2022/07/25 10:33:10;;;;;;;14.73;4.75;;;11.40;99.90;;;;;;5107539;28;20042;-50
2022/07/25 10:35:38;;;;;;;9.48;3.72;;;11.30;99.90;;;;;;5089146;28;20135;-54
2022/07/25 10:38:06;;;;;;;8.82;3.45;;;11.30;99.90;;;;;;5107370;28;20035;-54
2022/07/25 10:40:51;;;;;;;12.13;3.78;;;11.40;99.90;;;;;;5107604;28;20027;-52
2022/07/25 10:43:24;;;;;;;11.80;3.92;;;11.30;99.90;;;;;;5107315;28;20023;-54
2022/07/25 10:45:59;;;;;;;13.25;4.03;;;11.30;99.90;;;;;;5109181;28;20032;-55
2022/07/25 10:48:31;;;;;;;14.23;3.92;;;11.40;99.90;;;;;;5114723;27;20024;-54
2022/07/25 10:51:10;;;;;;;12.43;4.60;;;11.40;99.90;;;;;;5109397;28;20063;-56
2022/07/25 10:53:48;;;;;;;14.45;4.40;;;11.30;99.90;;;;;;5114712;27;20019;-53
2022/07/25 10:56:16;;;;;;;15.90;4.68;;;11.40;99.90;;;;;;5132207;27;20030;-51
2022/07/25 10:59:00;;;;;;;7.85;3.88;;;11.40;99.90;;;;;;5125650;27;20044;-55
2022/07/25 11:01:37;;;;;;;14.77;6.05;;;11.40;99.90;;;;;;5117558;27;20611;-56
2022/07/25 11:04:14;;;;;;;10.43;4.55;;;11.40;99.90;;;;;;5113331;27;20031;-55
2022/07/25 11:06:43;;;;;;;20.45;6.07;;;11.40;99.90;;;;;;5124183;27;20028;-54
2022/07/25 11:09:25;;;;;;;14.45;5.07;;;11.40;99.90;;;;;;5111716;27;20035;-53
2022/07/25 11:11:54;;;;;;;13.55;5.90;;;11.30;99.90;;;;;;5111265;27;20403;-54
2022/07/25 11:14:32;;;;;;;9.93;4.70;;;11.20;99.90;;;;;;5111168;28;20035;-57
2022/07/25 11:17:15;;;;;;;13.18;4.82;;;11.20;99.90;;;;;;5121909;27;20051;-56
2022/07/25 11:19:55;;;;;;;9.60;4.90;;;11.00;99.90;;;;;;5131365;27;20043;-58
2022/07/25 11:22:24;;;;;;;15.57;5.65;;;11.00;99.90;;;;;;5131387;27;20081;-51
2022/07/25 11:24:51;;;;;;;13.48;5.13;;;10.90;99.90;;;;;;5117214;27;20069;-52
2022/07/25 11:27:25;;;;;;;12.13;4.03;;;10.70;99.90;;;;;;5122089;27;20047;-51
2022/07/25 11:29:52;;;;;;;11.10;4.75;;;10.50;99.90;;;;;;5110803;28;20357;-53
2022/07/25 11:32:20;;;;;;;16.48;5.32;;;10.40;99.90;;;;;;5100991;28;20035;-51
2022/07/25 11:34:49;;;;;;;13.65;5.35;;;10.30;99.90;;;;;;5110388;28;20070;-56
2022/07/25 11:37:17;;;;;;;13.55;4.75;;;10.30;99.90;;;;;;5129148;27;20027;-54
2022/07/25 11:39:46;;;;;;;16.10;4.78;;;10.20;99.90;;;;;;5120660;27;20491;-55
2022/07/25 11:42:18;;;;;;;11.10;4.90;;;10.00;99.90;;;;;;5112171;27;20015;-54
2022/07/25 11:44:50;;;;;;;14.30;5.60;;;10.00;99.90;;;;;;5123737;27;20528;-50
2022/07/25 11:47:30;;;;;;;16.20;4.90;;;9.90;99.90;;;;;;5092270;28;20134;-50
2022/07/25 11:50:03;;;;;;;11.65;5.70;;;9.90;99.90;;;;;;5108212;28;20026;-57
2022/07/25 11:52:36;;;;;;;21.88;9.13;;;9.90;99.90;;;;;;5106256;28;20049;-54
2022/07/25 11:55:09;;;;;;;14.07;7.85;;;9.80;99.90;;;;;;5119983;27;20100;-54
2022/07/25 11:57:43;;;;;;;21.63;8.07;;;9.80;99.90;;;;;;5112010;27;20031;-52
2022/07/25 12:00:21;;;;;;;18.52;8.35;;;9.80;99.90;;;;;;5122152;27;20033;-55
2022/07/25 12:02:49;;;;;;;24.02;8.25;;;9.80;99.90;;;;;;5117590;27;20034;-53
2022/07/25 12:05:22;;;;;;;20.92;8.65;;;9.80;99.90;;;;;;5112843;27;20027;-52
2022/07/25 12:07:51;;;;;;;21.92;9.23;;;9.90;99.90;;;;;;5113703;27;20019;-53
2022/07/25 12:10:22;;;;;;;18.80;9.75;;;9.90;99.90;;;;;;5097854;28;20034;-51
2022/07/25 12:12:51;;;;;;;24.48;10.20;;;9.90;99.90;;;;;;5100586;28;20169;-53
2022/07/25 12:15:23;;;;;;;19.42;8.70;;;9.90;99.90;;;;;;5110340;28;20028;-52
2022/07/25 12:17:52;;;;;;;18.92;8.75;;;9.90;99.90;;;;;;5109768;28;20493;-55
2022/07/25 12:20:28;;;;;;;19.92;9.23;;;9.90;99.90;;;;;;5109778;28;20016;-51
2022/07/25 12:22:59;;;;;;;18.50;9.10;;;9.90;99.90;;;;;;5109896;28;20031;-54
2022/07/25 12:25:27;;;;;;;17.17;8.80;;;9.90;99.90;;;;;;5129856;27;20023;-51
2022/07/25 12:27:55;;;;;;;19.55;8.90;;;9.90;99.90;;;;;;5128671;27;20038;-52
2022/07/25 12:30:22;;;;;;;13.52;7.50;;;9.80;99.90;;;;;;5114940;27;20461;-55
2022/07/25 12:32:50;;;;;;;21.90;7.97;;;9.90;99.90;;;;;;5112018;27;20023;-56
2022/07/25 12:35:17;;;;;;;22.85;9.07;;;9.80;99.90;;;;;;5093611;28;20084;-52
2022/07/25 12:37:44;;;;;;;21.45;9.32;;;9.80;99.90;;;;;;5112233;28;20110;-56
2022/07/25 12:40:13;;;;;;;16.65;8.43;;;9.80;99.90;;;;;;5094133;28;20024;-50
2022/07/25 12:42:41;;;;;;;19.85;9.60;;;9.80;99.90;;;;;;5111796;28;20345;-49
2022/07/25 12:45:09;;;;;;;14.48;8.27;;;9.80;99.90;;;;;;5111862;28;20028;-54
2022/07/25 12:47:37;;;;;;;23.27;8.25;;;9.80;99.90;;;;;;5111850;28;20426;-53
2022/07/25 12:50:05;;;;;;;14.27;7.70;;;9.80;99.90;;;;;;5111586;28;20019;-54
2022/07/25 12:52:33;;;;;;;14.88;8.00;;;9.90;99.90;;;;;;5111798;28;20084;-54
2022/07/25 12:55:00;;;;;;;22.13;8.70;;;9.80;99.90;;;;;;5093265;28;20114;-54
2022/07/25 12:57:28;;;;;;;16.33;8.30;;;9.80;99.90;;;;;;5111655;28;20024;-55